createdAt,value
2016-11-15T00:00:41.723Z,19.46
2016-11-15T00:01:52.039Z,19.49
2016-11-15T00:03:02.358Z,19.45
2016-11-15T00:04:12.679Z,19.47
2016-11-15T00:05:37.670Z,19.49
2016-11-15T00:06:48.464Z,19.53
2016-11-15T00:07:58.780Z,19.52
2016-11-15T00:09:09.102Z,19.52
2016-11-15T00:10:19.417Z,19.46
2016-11-15T00:11:29.735Z,19.42
2016-11-15T00:12:40.053Z,19.4
2016-11-15T00:13:50.370Z,19.38
2016-11-15T00:15:00.685Z,19.47
2016-11-15T00:16:11.001Z,19.42
2016-11-15T00:17:35.902Z,19.45
2016-11-15T00:18:46.220Z,19.35
2016-11-15T00:19:56.534Z,19.34
2016-11-15T00:21:06.858Z,19.31
2016-11-15T00:22:31.842Z,19.34
2016-11-15T00:23:42.162Z,19.27
2016-11-15T00:25:07.053Z,19.32
2016-11-15T00:26:17.377Z,19.32
2016-11-15T00:27:42.310Z,19.32
2016-11-15T00:28:52.636Z,19.38
2016-11-15T00:30:02.961Z,19.39
2016-11-15T00:31:13.283Z,19.32
2016-11-15T00:32:23.603Z,19.34
2016-11-15T00:33:34.101Z,19.31
2016-11-15T00:34:44.541Z,19.34
2016-11-15T00:35:54.975Z,19.28
2016-11-15T00:37:05.412Z,19.31
2016-11-15T00:38:15.850Z,19.31
2016-11-15T00:39:26.422Z,19.32
2016-11-15T00:40:36.982Z,19.35
2016-11-15T00:41:47.513Z,19.27
2016-11-15T00:42:58.046Z,19.34
2016-11-15T00:44:08.579Z,19.35
2016-11-15T00:45:19.311Z,19.35
2016-11-15T00:46:29.870Z,19.35
2016-11-15T00:47:40.403Z,19.42
2016-11-15T00:48:50.940Z,19.32
2016-11-15T00:50:01.471Z,19.35
2016-11-15T00:51:12.200Z,19.43
2016-11-15T00:52:22.733Z,19.35
2016-11-15T00:53:33.262Z,19.42
2016-11-15T00:54:43.801Z,19.35
2016-11-15T00:55:54.333Z,19.46
2016-11-15T00:57:04.860Z,19.49
2016-11-15T00:58:15.398Z,19.45
2016-11-15T00:59:25.934Z,19.42
2016-11-15T01:00:36.465Z,19.32
2016-11-15T01:01:46.993Z,19.38
2016-11-15T01:02:57.629Z,19.39
2016-11-15T01:04:08.172Z,19.39
2016-11-15T01:05:18.705Z,19.34
2016-11-15T01:06:29.239Z,19.4
2016-11-15T01:07:39.765Z,19.46
2016-11-15T01:08:50.299Z,19.42
2016-11-15T01:10:00.835Z,19.39
2016-11-15T01:11:11.363Z,19.47
2016-11-15T01:12:21.891Z,19.39
2016-11-15T01:13:32.429Z,19.42
2016-11-15T01:14:43.161Z,19.52
2016-11-15T01:15:53.690Z,19.45
2016-11-15T01:17:04.260Z,19.43
2016-11-15T01:18:29.316Z,19.35
2016-11-15T01:19:40.043Z,19.42
2016-11-15T01:20:50.574Z,19.46
2016-11-15T01:22:01.103Z,19.45
2016-11-15T01:23:11.630Z,19.49
2016-11-15T01:24:22.155Z,19.53
2016-11-15T01:25:32.688Z,19.55
2016-11-15T01:26:43.220Z,19.61
2016-11-15T01:27:53.754Z,19.65
2016-11-15T01:29:04.283Z,19.6
2016-11-15T01:30:14.813Z,19.62
2016-11-15T01:31:25.339Z,19.64
2016-11-15T01:34:01.957Z,19.67
2016-11-15T01:35:12.491Z,19.61
2016-11-15T01:36:23.161Z,19.68
2016-11-15T01:37:33.688Z,19.55
2016-11-15T01:38:44.223Z,19.65
2016-11-15T01:39:54.750Z,19.61
2016-11-15T01:41:05.280Z,19.6
2016-11-15T01:42:15.808Z,19.64
2016-11-15T01:43:26.336Z,19.64
2016-11-15T01:44:36.867Z,19.58
2016-11-15T01:45:47.396Z,19.49
2016-11-15T01:46:57.928Z,19.52
2016-11-15T01:48:08.657Z,19.58
2016-11-15T01:49:19.184Z,19.62
2016-11-15T01:50:44.238Z,19.68
2016-11-15T01:51:54.774Z,19.62
2016-11-15T01:53:06.011Z,19.64
2016-11-15T01:54:16.547Z,19.61
2016-11-15T01:55:41.603Z,19.7
2016-11-15T01:56:52.129Z,19.62
2016-11-15T01:58:02.706Z,19.6
2016-11-15T01:59:27.966Z,19.53
2016-11-15T02:00:38.500Z,19.57
2016-11-15T02:01:49.028Z,19.53
2016-11-15T02:02:59.561Z,19.52
2016-11-15T02:04:10.325Z,19.53
2016-11-15T02:05:20.867Z,19.58
2016-11-15T02:06:31.394Z,19.52
2016-11-15T02:07:41.917Z,19.55
2016-11-15T02:08:52.454Z,19.5
2016-11-15T02:10:03.128Z,19.53
2016-11-15T02:11:13.571Z,19.46
2016-11-15T02:12:38.613Z,19.61
2016-11-15T02:13:49.054Z,19.52
2016-11-15T02:14:59.689Z,19.49
2016-11-15T02:16:10.127Z,19.53
2016-11-15T02:17:20.561Z,19.55
2016-11-15T02:18:45.548Z,19.46
2016-11-15T02:19:55.984Z,19.42
2016-11-15T02:21:06.522Z,19.58
2016-11-15T02:22:16.963Z,19.49
2016-11-15T02:23:27.401Z,19.45
2016-11-15T02:24:37.865Z,19.5
2016-11-15T02:25:48.303Z,19.5
2016-11-15T02:27:13.284Z,19.5
2016-11-15T02:28:23.718Z,19.52
2016-11-15T02:29:34.163Z,19.62
2016-11-15T02:30:44.600Z,19.58
2016-11-15T02:31:55.038Z,19.6
2016-11-15T02:33:05.477Z,19.61
2016-11-15T02:34:15.918Z,19.58
2016-11-15T02:35:26.358Z,19.58
2016-11-15T02:36:36.793Z,19.64
2016-11-15T02:37:47.230Z,19.65
2016-11-15T02:38:57.668Z,19.65
2016-11-15T02:40:08.109Z,19.58
2016-11-15T02:41:18.543Z,19.55
2016-11-15T02:42:29.078Z,19.57
2016-11-15T02:43:39.510Z,19.5
2016-11-15T02:44:49.948Z,19.39
2016-11-15T02:46:14.929Z,19.39
2016-11-15T02:47:25.463Z,19.43
2016-11-15T02:48:35.898Z,19.4
2016-11-15T02:49:46.345Z,19.57
2016-11-15T02:50:56.785Z,19.45
2016-11-15T02:52:07.226Z,19.52
2016-11-15T02:53:17.772Z,19.32
2016-11-15T02:54:28.266Z,19.39
2016-11-15T02:55:38.796Z,19.34
2016-11-15T02:56:49.330Z,19.43
2016-11-15T02:57:59.890Z,19.31
2016-11-15T02:59:10.416Z,19.39
2016-11-15T03:00:35.471Z,19.34
2016-11-15T03:02:00.526Z,19.34
2016-11-15T03:03:11.562Z,19.34
2016-11-15T03:04:22.092Z,19.35
2016-11-15T03:05:32.620Z,19.35
2016-11-15T03:06:43.187Z,19.42
2016-11-15T03:07:53.716Z,19.28
2016-11-15T03:09:04.246Z,19.43
2016-11-15T03:10:14.880Z,19.3
2016-11-15T03:11:25.413Z,19.31
2016-11-15T03:12:35.947Z,19.32
2016-11-15T03:13:46.475Z,19.35
2016-11-15T03:15:11.536Z,19.3
2016-11-15T03:16:22.062Z,19.3
2016-11-15T03:17:32.595Z,19.3
2016-11-15T03:18:43.125Z,19.24
2016-11-15T03:19:53.655Z,19.32
2016-11-15T03:21:04.284Z,19.31
2016-11-15T03:22:14.811Z,19.31
2016-11-15T03:23:25.341Z,19.34
2016-11-15T03:24:35.814Z,19.31
2016-11-15T03:25:46.220Z,19.24
2016-11-15T03:26:56.629Z,19.24
2016-11-15T03:28:07.056Z,19.34
2016-11-15T03:29:17.467Z,19.25
2016-11-15T03:30:27.879Z,19.28
2016-11-15T03:31:38.298Z,19.24
2016-11-15T03:32:48.803Z,19.32
2016-11-15T03:33:59.213Z,19.31
2016-11-15T03:35:09.619Z,19.32
2016-11-15T03:36:20.034Z,19.39
2016-11-15T03:37:30.443Z,19.35
2016-11-15T03:38:41.054Z,19.35
2016-11-15T03:39:51.466Z,19.32
2016-11-15T03:41:01.875Z,19.34
2016-11-15T03:42:12.293Z,19.39
2016-11-15T03:43:22.705Z,19.3
2016-11-15T03:44:33.243Z,19.27
2016-11-15T03:45:43.653Z,19.38
2016-11-15T03:46:54.066Z,19.43
2016-11-15T03:49:29.704Z,19.47
2016-11-15T03:50:40.113Z,19.46
2016-11-15T03:51:50.522Z,19.49
2016-11-15T03:53:00.931Z,19.5
2016-11-15T03:54:11.341Z,19.53
2016-11-15T03:55:21.853Z,19.52
2016-11-15T03:56:32.269Z,19.57
2016-11-15T03:57:42.738Z,19.55
2016-11-15T03:58:53.265Z,19.43
2016-11-15T04:00:03.826Z,19.42
2016-11-15T04:01:14.357Z,19.5
2016-11-15T04:02:24.884Z,19.47
2016-11-15T04:03:35.415Z,19.43
2016-11-15T04:04:45.943Z,19.49
2016-11-15T04:05:56.474Z,19.46
2016-11-15T04:07:07.205Z,19.5
2016-11-15T04:08:17.736Z,19.47
2016-11-15T04:09:28.311Z,19.43
2016-11-15T04:10:38.840Z,19.53
2016-11-15T04:11:49.370Z,19.42
2016-11-15T04:13:00.106Z,19.43
2016-11-15T04:14:10.675Z,19.45
2016-11-15T04:15:21.209Z,19.4
2016-11-15T04:16:31.740Z,19.42
2016-11-15T04:17:42.279Z,19.52
2016-11-15T04:18:52.873Z,19.38
2016-11-15T04:20:03.400Z,19.45
2016-11-15T04:21:13.938Z,19.45
2016-11-15T04:22:24.470Z,19.4
2016-11-15T04:23:34.996Z,19.39
2016-11-15T04:25:00.052Z,19.38
2016-11-15T04:26:10.581Z,19.35
2016-11-15T04:27:21.109Z,19.34
2016-11-15T04:28:31.642Z,19.45
2016-11-15T04:29:42.277Z,19.34
2016-11-15T04:30:52.805Z,19.31
2016-11-15T04:32:03.331Z,19.39
2016-11-15T04:33:13.861Z,19.32
2016-11-15T04:34:24.393Z,19.28
2016-11-15T04:35:35.560Z,19.24
2016-11-15T04:36:46.570Z,19.31
2016-11-15T04:37:57.106Z,19.35
2016-11-15T04:39:07.639Z,19.38
2016-11-15T04:40:18.169Z,19.31
2016-11-15T04:41:28.704Z,19.43
2016-11-15T04:42:39.229Z,19.38
2016-11-15T04:43:49.762Z,19.34
2016-11-15T04:45:00.291Z,19.3
2016-11-15T04:46:10.818Z,19.35
2016-11-15T04:47:21.477Z,19.27
2016-11-15T04:49:57.066Z,19.28
2016-11-15T04:51:08.089Z,19.34
2016-11-15T04:52:18.854Z,19.27
2016-11-15T04:53:29.382Z,19.34
2016-11-15T04:54:39.915Z,19.24
2016-11-15T04:55:50.450Z,19.28
2016-11-15T04:57:00.982Z,19.31
2016-11-15T04:58:11.608Z,19.31
2016-11-15T04:59:22.134Z,19.24
2016-11-15T05:00:32.669Z,19.23
2016-11-15T05:01:43.199Z,19.21
2016-11-15T05:02:53.733Z,19.23
2016-11-15T05:04:04.263Z,19.24
2016-11-15T05:06:39.719Z,19.23
2016-11-15T05:07:50.132Z,19.28
2016-11-15T05:09:00.676Z,19.23
2016-11-15T05:10:11.085Z,19.23
2016-11-15T05:11:21.496Z,19.28
2016-11-15T05:12:31.907Z,19.28
2016-11-15T05:13:42.316Z,19.28
2016-11-15T05:14:52.930Z,19.27
2016-11-15T05:16:03.376Z,19.34
2016-11-15T05:17:13.783Z,19.32
2016-11-15T05:18:24.191Z,19.39
2016-11-15T05:19:34.604Z,19.3
2016-11-15T05:20:45.017Z,19.39
2016-11-15T05:21:55.439Z,19.47
2016-11-15T05:24:31.299Z,19.45
2016-11-15T05:25:41.809Z,19.39
2016-11-15T05:26:52.287Z,19.35
2016-11-15T05:28:02.699Z,19.38
2016-11-15T05:29:13.109Z,19.38
2016-11-15T05:30:23.523Z,19.32
2016-11-15T05:31:34.036Z,19.42
2016-11-15T05:32:44.446Z,19.35
2016-11-15T05:33:54.862Z,19.39
2016-11-15T05:35:05.272Z,19.38
2016-11-15T05:36:15.687Z,19.32
2016-11-15T05:37:40.678Z,19.38
2016-11-15T05:38:51.085Z,19.35
2016-11-15T05:40:01.498Z,19.38
2016-11-15T05:41:11.913Z,19.3
2016-11-15T05:42:22.325Z,19.28
2016-11-15T05:43:47.283Z,19.3
2016-11-15T05:44:57.700Z,19.17
2016-11-15T05:46:08.109Z,19.25
2016-11-15T05:47:18.522Z,19.16
2016-11-15T05:48:43.480Z,19.24
2016-11-15T05:49:53.889Z,19.25
2016-11-15T05:51:04.341Z,19.27
2016-11-15T05:52:14.753Z,19.25
2016-11-15T05:53:25.263Z,19.27
2016-11-15T05:54:35.675Z,19.28
2016-11-15T05:55:46.094Z,19.13
2016-11-15T05:56:56.510Z,19.28
2016-11-15T05:58:21.671Z,19.27
2016-11-15T06:00:57.072Z,19.27
2016-11-15T06:02:07.969Z,19.28
2016-11-15T06:03:18.375Z,19.31
2016-11-15T06:04:28.804Z,19.34
2016-11-15T06:05:39.210Z,19.31
2016-11-15T06:06:49.620Z,19.32
2016-11-15T06:08:00.031Z,19.32
2016-11-15T06:09:10.648Z,19.34
2016-11-15T06:10:21.058Z,19.32
2016-11-15T06:11:31.959Z,19.28
2016-11-15T06:12:42.369Z,19.25
2016-11-15T06:13:52.780Z,19.25
2016-11-15T06:15:17.839Z,19.3
2016-11-15T06:16:28.347Z,19.32
2016-11-15T06:17:39.314Z,19.32
2016-11-15T06:18:50.211Z,19.34
2016-11-15T06:20:00.651Z,19.32
2016-11-15T06:21:11.262Z,19.34
2016-11-15T06:22:21.673Z,19.3
2016-11-15T06:23:32.089Z,19.35
2016-11-15T06:24:42.508Z,19.31
2016-11-15T06:25:52.916Z,19.35
2016-11-15T06:27:03.431Z,19.27
2016-11-15T06:28:13.839Z,19.15
2016-11-15T06:29:24.254Z,19.16
2016-11-15T06:30:34.671Z,19.13
2016-11-15T06:31:45.080Z,19.17
2016-11-15T06:32:55.530Z,19.13
2016-11-15T06:34:05.944Z,19.13
2016-11-15T06:35:16.354Z,19.15
2016-11-15T06:36:26.766Z,19.13
2016-11-15T06:37:37.173Z,19.1
2016-11-15T06:38:47.713Z,19.13
2016-11-15T06:39:58.072Z,19.16
2016-11-15T06:41:08.389Z,19.13
2016-11-15T06:42:18.746Z,19.16
2016-11-15T06:43:29.064Z,19.12
2016-11-15T06:44:39.484Z,19.1
2016-11-15T06:45:49.801Z,19.06
2016-11-15T06:47:00.122Z,19.13
2016-11-15T06:48:10.440Z,19.13
2016-11-15T06:49:20.758Z,19.07
2016-11-15T06:50:31.177Z,19.13
2016-11-15T06:51:41.499Z,19.07
2016-11-15T06:52:51.823Z,19.1
2016-11-15T06:54:02.143Z,18.96
2016-11-15T06:55:12.459Z,18.96
2016-11-15T06:56:22.975Z,19.09
2016-11-15T06:57:33.300Z,19.01
2016-11-15T06:58:43.651Z,18.94
2016-11-15T06:59:53.970Z,19.05
2016-11-15T07:01:04.288Z,19.1
2016-11-15T07:02:29.175Z,18.97
2016-11-15T07:03:39.495Z,19.09
2016-11-15T07:04:49.851Z,19.1
2016-11-15T07:06:00.178Z,19.02
2016-11-15T07:07:10.501Z,19.12
2016-11-15T07:08:20.817Z,19.09
2016-11-15T07:09:31.146Z,19.07
2016-11-15T07:10:41.470Z,18.94
2016-11-15T07:11:51.788Z,19.02
2016-11-15T07:13:03.105Z,19.09
2016-11-15T07:14:13.427Z,19.12
2016-11-15T07:15:23.743Z,19.15
2016-11-15T07:16:34.062Z,19.16
2016-11-15T07:17:44.380Z,19.13
2016-11-15T07:18:54.701Z,19.09
2016-11-15T07:20:05.017Z,19.12
2016-11-15T07:21:15.336Z,19.2
2016-11-15T07:22:25.655Z,19.15
2016-11-15T07:23:35.979Z,19.21
2016-11-15T07:24:46.294Z,19.16
2016-11-15T07:25:56.618Z,19.15
2016-11-15T07:27:06.935Z,19.28
2016-11-15T07:28:17.254Z,19.27
2016-11-15T07:29:27.572Z,19.23
2016-11-15T07:30:38.094Z,19.31
2016-11-15T07:31:48.417Z,19.25
2016-11-15T07:32:58.736Z,19.24
2016-11-15T07:34:23.623Z,19.24
2016-11-15T07:35:33.945Z,19.25
2016-11-15T07:36:44.267Z,19.25
2016-11-15T07:37:54.581Z,19.23
2016-11-15T07:39:04.899Z,19.25
2016-11-15T07:40:15.219Z,19.23
2016-11-15T07:41:25.640Z,19.21
2016-11-15T07:42:50.529Z,19.24
2016-11-15T07:44:00.867Z,19.17
2016-11-15T07:45:11.191Z,19.17
2016-11-15T07:46:21.608Z,19.24
2016-11-15T07:47:31.929Z,19.23
2016-11-15T07:48:42.249Z,19.2
2016-11-15T07:49:52.566Z,19.13
2016-11-15T07:51:02.887Z,19.17
2016-11-15T07:52:13.220Z,19.15
2016-11-15T07:53:23.607Z,19.17
2016-11-15T07:54:34.043Z,19.21
2016-11-15T07:55:44.516Z,19.09
2016-11-15T07:56:54.988Z,19.15
2016-11-15T07:58:05.621Z,19.13
2016-11-15T07:59:16.056Z,19.2
2016-11-15T08:00:26.494Z,19.17
2016-11-15T08:01:36.937Z,19.15
2016-11-15T08:03:02.118Z,19.21
2016-11-15T08:04:12.555Z,19.17
2016-11-15T08:05:23.479Z,19.15
2016-11-15T08:06:33.915Z,19.23
2016-11-15T08:07:44.351Z,19.25
2016-11-15T08:09:09.336Z,19.25
2016-11-15T08:10:19.772Z,19.21
2016-11-15T08:11:30.211Z,19.17
2016-11-15T08:12:40.645Z,19.12
2016-11-15T08:13:51.281Z,19.15
2016-11-15T08:15:01.720Z,19.13
2016-11-15T08:16:12.686Z,19.12
2016-11-15T08:17:23.116Z,19.15
2016-11-15T08:18:33.552Z,19.2
2016-11-15T08:19:44.190Z,19.23
2016-11-15T08:20:54.628Z,19.15
2016-11-15T08:22:05.125Z,19.17
2016-11-15T08:23:15.559Z,19.17
2016-11-15T08:24:25.995Z,19.15
2016-11-15T08:25:36.635Z,19.2
2016-11-15T08:26:47.069Z,19.16
2016-11-15T08:27:57.511Z,19.24
2016-11-15T08:29:07.947Z,19.3
2016-11-15T08:30:18.411Z,19.3
2016-11-15T08:31:28.846Z,19.32
2016-11-15T08:32:39.285Z,19.35
2016-11-15T08:33:49.725Z,19.32
2016-11-15T08:35:00.648Z,19.31
2016-11-15T08:36:11.085Z,19.32
2016-11-15T08:37:21.720Z,19.35
2016-11-15T08:38:32.166Z,19.32
2016-11-15T08:39:42.612Z,19.27
2016-11-15T08:40:53.049Z,19.24
2016-11-15T08:42:03.486Z,19.23
2016-11-15T08:43:13.922Z,19.28
2016-11-15T08:44:24.359Z,19.23
2016-11-15T08:45:34.797Z,19.16
2016-11-15T08:46:45.233Z,19.24
2016-11-15T08:47:55.737Z,19.17
2016-11-15T08:49:06.373Z,19.3
2016-11-15T08:50:16.809Z,19.25
2016-11-15T08:51:41.788Z,19.25
2016-11-15T08:52:52.220Z,19.34
2016-11-15T08:54:03.147Z,19.35
2016-11-15T08:55:13.853Z,19.35
2016-11-15T08:57:49.265Z,19.38
2016-11-15T08:58:59.700Z,19.39
2016-11-15T09:00:24.679Z,19.35
2016-11-15T09:01:35.120Z,19.35
2016-11-15T09:02:45.562Z,19.3
2016-11-15T09:03:55.994Z,19.3
2016-11-15T09:05:06.543Z,19.35
2016-11-15T09:06:16.979Z,19.3
2016-11-15T09:07:27.412Z,19.35
2016-11-15T09:08:37.848Z,19.42
2016-11-15T09:09:48.287Z,19.45
2016-11-15T09:10:58.855Z,19.47
2016-11-15T09:12:09.291Z,19.47
2016-11-15T09:13:19.726Z,19.4
2016-11-15T09:14:30.166Z,19.46
2016-11-15T09:15:40.600Z,19.42
2016-11-15T09:16:51.045Z,19.53
2016-11-15T09:18:01.477Z,19.46
2016-11-15T09:19:11.913Z,19.42
2016-11-15T09:20:22.347Z,19.45
2016-11-15T09:21:32.782Z,19.46
2016-11-15T09:22:43.315Z,19.38
2016-11-15T09:23:53.749Z,19.32
2016-11-15T09:25:04.223Z,19.39
2016-11-15T09:26:14.658Z,19.43
2016-11-15T09:27:25.090Z,19.55
2016-11-15T09:28:35.726Z,19.52
2016-11-15T09:29:46.164Z,19.58
2016-11-15T09:30:56.597Z,19.61
2016-11-15T09:32:07.032Z,19.61
2016-11-15T09:33:17.465Z,19.64
2016-11-15T09:34:28.097Z,19.58
2016-11-15T09:35:38.538Z,19.62
2016-11-15T09:38:28.497Z,19.61
2016-11-15T09:39:39.130Z,19.62
2016-11-15T09:40:49.900Z,19.61
2016-11-15T09:42:01.064Z,19.61
2016-11-15T09:43:11.907Z,19.61
2016-11-15T09:44:22.850Z,19.71
2016-11-15T09:45:33.387Z,19.75
2016-11-15T09:46:43.824Z,19.67
2016-11-15T09:47:54.256Z,19.75
2016-11-15T09:49:04.689Z,19.68
2016-11-15T09:50:15.128Z,19.68
2016-11-15T09:51:26.397Z,19.76
2016-11-15T09:52:36.834Z,19.71
2016-11-15T09:53:47.271Z,19.76
2016-11-15T09:54:57.707Z,19.76
2016-11-15T09:56:08.146Z,19.72
2016-11-15T09:57:18.584Z,19.7
2016-11-15T09:58:29.032Z,19.64
2016-11-15T09:59:39.465Z,19.65
2016-11-15T10:00:49.898Z,19.7
2016-11-15T10:02:00.336Z,19.62
2016-11-15T10:03:10.874Z,19.62
2016-11-15T10:04:21.315Z,19.6
2016-11-15T10:05:31.757Z,19.67
2016-11-15T10:06:42.195Z,19.64
2016-11-15T10:07:52.576Z,19.67
2016-11-15T10:09:02.993Z,19.68
2016-11-15T10:10:13.313Z,19.65
2016-11-15T10:11:24.118Z,19.7
2016-11-15T10:12:49.008Z,19.68
2016-11-15T10:13:59.426Z,19.67
2016-11-15T10:15:09.746Z,19.68
2016-11-15T10:16:20.078Z,19.65
2016-11-15T10:17:30.395Z,19.65
2016-11-15T10:18:41.067Z,19.64
2016-11-15T10:19:51.482Z,19.71
2016-11-15T10:21:01.796Z,19.79
2016-11-15T10:22:12.117Z,19.83
2016-11-15T10:23:22.442Z,19.79
2016-11-15T10:24:32.818Z,19.83
2016-11-15T10:25:43.229Z,19.98
2016-11-15T10:26:53.643Z,19.94
2016-11-15T10:28:04.055Z,20.04
2016-11-15T10:29:14.471Z,20.05
2016-11-15T10:30:24.893Z,20.02
2016-11-15T10:31:35.401Z,20.1
2016-11-15T10:32:45.823Z,20.08
2016-11-15T10:33:56.229Z,20.19
2016-11-15T10:35:06.639Z,20.16
2016-11-15T10:36:17.050Z,20.22
2016-11-15T10:37:27.554Z,20.25
2016-11-15T10:38:37.961Z,20.25
2016-11-15T10:39:48.379Z,20.33
2016-11-15T10:42:38.881Z,20.16
2016-11-15T10:43:49.293Z,20.2
2016-11-15T10:44:59.737Z,20.15
2016-11-15T10:47:35.212Z,20.04
2016-11-15T10:48:45.638Z,20.19
2016-11-15T10:49:56.044Z,20.02
2016-11-15T10:51:06.455Z,20.05
2016-11-15T10:52:16.869Z,20.01
2016-11-15T10:53:27.385Z,20.02
2016-11-15T10:54:37.815Z,20.1
2016-11-15T10:55:48.268Z,20.1
2016-11-15T11:05:59.741Z,20.07
2016-11-15T11:07:24.698Z,20.08
2016-11-15T11:08:35.110Z,20.19
2016-11-15T11:09:45.664Z,20.17
2016-11-15T11:10:55.983Z,20.22
2016-11-15T11:12:06.304Z,20.35
2016-11-15T11:13:16.623Z,20.41
2016-11-15T11:15:52.065Z,20.51
2016-11-15T11:17:02.855Z,20.73
2016-11-15T11:18:13.174Z,20.78
2016-11-15T11:19:23.495Z,20.83
2016-11-15T11:20:34.014Z,20.9
2016-11-15T11:21:44.336Z,20.91
2016-11-15T11:22:54.660Z,20.94
2016-11-15T11:24:04.983Z,21.01
2016-11-15T11:25:15.300Z,21.09
2016-11-15T11:26:25.725Z,21.13
2016-11-15T11:27:36.046Z,21.06
2016-11-15T11:28:46.364Z,21.05
2016-11-15T11:29:56.684Z,21.08
2016-11-15T11:31:07.011Z,21.12
2016-11-15T11:32:17.529Z,21.21
2016-11-15T11:33:27.847Z,21.19
2016-11-15T11:34:38.166Z,21.21
2016-11-15T11:35:48.527Z,21.08
2016-11-15T11:36:58.848Z,21.27
2016-11-15T11:38:09.172Z,21.3
2016-11-15T11:39:19.518Z,21.3
2016-11-15T11:40:30.356Z,21.31
2016-11-15T11:41:55.242Z,21.22
2016-11-15T11:43:05.664Z,21.33
2016-11-15T11:44:15.986Z,21.3
2016-11-15T11:45:26.303Z,21.33
2016-11-15T11:46:36.620Z,21.3
2016-11-15T11:47:46.943Z,21.18
2016-11-15T11:48:57.461Z,21.24
2016-11-15T11:50:07.777Z,21.22
2016-11-15T11:51:18.100Z,21.28
2016-11-15T11:52:28.417Z,21.3
2016-11-15T11:53:38.741Z,21.33
2016-11-15T11:54:49.256Z,21.36
2016-11-15T11:55:59.569Z,21.42
2016-11-15T11:57:09.887Z,21.4
2016-11-15T11:58:20.688Z,21.49
2016-11-15T11:59:31.005Z,21.46
2016-11-15T12:00:41.330Z,21.38
2016-11-15T12:01:51.654Z,21.34
2016-11-15T12:03:01.969Z,21.26
2016-11-15T12:05:37.175Z,21.08
2016-11-15T12:06:47.598Z,21.05
2016-11-15T12:07:57.913Z,21.05
2016-11-15T12:09:08.232Z,21.21
2016-11-15T12:10:18.549Z,21.18
2016-11-15T12:11:43.437Z,21.27
2016-11-15T12:12:53.759Z,21.21
2016-11-15T12:14:04.075Z,21.19
2016-11-15T12:15:14.396Z,21.16
2016-11-15T12:16:24.719Z,21.27
2016-11-15T12:17:35.070Z,21.3
2016-11-15T12:18:45.384Z,21.34
2016-11-15T12:19:55.699Z,21.27
2016-11-15T12:21:06.021Z,21.4
2016-11-15T12:22:16.440Z,21.4
2016-11-15T12:23:26.758Z,21.37
2016-11-15T12:24:37.108Z,21.46
2016-11-15T12:25:47.427Z,21.63
2016-11-15T12:26:57.750Z,21.59
2016-11-15T12:28:08.068Z,21.68
2016-11-15T12:29:18.392Z,21.93
2016-11-15T12:30:28.721Z,22.05
2016-11-15T12:31:39.040Z,22.17
2016-11-15T12:32:49.366Z,22.39
2016-11-15T12:33:59.689Z,22.59
2016-11-15T12:35:24.580Z,22.66
2016-11-15T12:36:34.910Z,22.72
2016-11-15T12:37:45.225Z,22.61
2016-11-15T12:38:55.645Z,22.66
2016-11-15T12:40:05.971Z,22.61
2016-11-15T12:41:16.327Z,22.36
2016-11-15T12:42:26.641Z,22.19
2016-11-15T12:43:36.962Z,22.08
2016-11-15T12:44:47.280Z,22.05
2016-11-15T12:45:57.595Z,21.93
2016-11-15T12:47:07.946Z,21.81
2016-11-15T12:48:18.264Z,21.7
2016-11-15T12:49:28.596Z,21.79
2016-11-15T12:50:39.154Z,21.82
2016-11-15T12:51:49.472Z,21.89
2016-11-15T12:52:59.787Z,21.93
2016-11-15T12:54:10.115Z,22.05
2016-11-15T12:55:20.466Z,22.02
2016-11-15T12:56:30.981Z,22.14
2016-11-15T12:57:41.303Z,22.14
2016-11-15T12:58:51.619Z,22.3
2016-11-15T13:00:01.934Z,22.44
2016-11-15T13:01:12.832Z,22.51
2016-11-15T13:02:23.155Z,22.44
2016-11-15T13:03:33.482Z,22.49
2016-11-15T13:04:58.374Z,22.36
2016-11-15T13:06:08.705Z,22.3
2016-11-15T13:07:19.702Z,22.31
2016-11-15T13:08:30.028Z,22.11
2016-11-15T13:09:40.354Z,22.14
2016-11-15T13:10:50.673Z,22.05
2016-11-15T13:12:01.090Z,22.15
2016-11-15T13:13:11.533Z,22.15
2016-11-15T13:14:21.865Z,22.2
2016-11-15T13:15:32.181Z,22.12
2016-11-15T13:16:42.499Z,22.08
2016-11-15T13:17:53.769Z,22.11
2016-11-15T13:19:04.191Z,22.01
2016-11-15T13:21:39.407Z,22.04
2016-11-15T13:22:49.725Z,22.02
2016-11-15T13:24:00.048Z,22.04
2016-11-15T13:25:10.395Z,22.12
2016-11-15T13:26:20.717Z,22.29
2016-11-15T13:27:31.039Z,22.56
2016-11-15T13:28:41.365Z,22.69
2016-11-15T13:29:51.821Z,22.88
2016-11-15T13:31:02.348Z,22.89
2016-11-15T13:32:12.669Z,22.89
2016-11-15T13:33:22.999Z,23.09
2016-11-15T13:34:33.322Z,23.21
2016-11-15T13:35:43.740Z,23.22
2016-11-15T13:36:54.067Z,23.41
2016-11-15T13:38:04.387Z,23.49
2016-11-15T13:39:14.705Z,23.52
2016-11-15T13:40:25.030Z,23.42
2016-11-15T13:41:35.452Z,23.25
2016-11-15T13:42:45.774Z,23.31
2016-11-15T13:43:56.096Z,23.22
2016-11-15T13:45:06.416Z,23.32
2016-11-15T13:46:16.751Z,23.38
2016-11-15T13:47:27.656Z,23.37
2016-11-15T13:48:37.975Z,23.37
2016-11-15T13:49:48.301Z,23.56
2016-11-15T13:50:58.626Z,23.6
2016-11-15T13:52:08.950Z,23.64
2016-11-15T13:53:19.368Z,23.75
2016-11-15T13:54:29.690Z,23.72
2016-11-15T13:55:40.017Z,23.79
2016-11-15T13:56:50.339Z,23.92
2016-11-15T13:58:00.661Z,23.94
2016-11-15T13:59:11.085Z,24.04
2016-11-15T14:01:46.771Z,24.19
2016-11-15T14:02:57.101Z,24.31
2016-11-15T14:04:07.479Z,24.33
2016-11-15T14:05:17.932Z,24.34
2016-11-15T14:06:28.376Z,24.37
2016-11-15T14:07:38.815Z,24.33
2016-11-15T14:08:49.286Z,24.15
2016-11-15T14:10:00.214Z,24.21
2016-11-15T14:11:10.656Z,24.29
2016-11-15T14:12:21.096Z,24.36
2016-11-15T14:13:31.545Z,24.45
2016-11-15T14:14:41.986Z,24.48
2016-11-15T14:15:52.426Z,24.51
2016-11-15T14:17:02.872Z,24.52
2016-11-15T14:18:13.309Z,24.45
2016-11-15T14:19:23.748Z,24.31
2016-11-15T14:20:34.190Z,24.23
2016-11-15T14:21:44.841Z,24.33
2016-11-15T14:22:55.283Z,24.37
2016-11-15T14:24:05.726Z,24.19
2016-11-15T14:25:30.711Z,23.96
2016-11-15T14:26:41.386Z,23.78
2016-11-15T14:27:51.829Z,23.59
2016-11-15T14:29:02.272Z,23.41
2016-11-15T14:30:12.715Z,23.35
2016-11-15T14:31:23.154Z,23.25
2016-11-15T14:32:48.137Z,23.25
2016-11-15T14:33:58.573Z,23.23
2016-11-15T14:35:09.019Z,22.79
2016-11-15T14:36:19.454Z,22.69
2016-11-15T14:37:29.894Z,22.67
2016-11-15T14:38:40.333Z,22.44
2016-11-15T14:41:15.760Z,22.11
2016-11-15T14:42:40.845Z,22.02
2016-11-15T14:43:51.280Z,22.04
2016-11-15T14:45:01.714Z,22.06
2016-11-15T14:46:12.155Z,22.01
2016-11-15T14:47:37.140Z,21.91
2016-11-15T14:48:47.575Z,21.9
2016-11-15T14:49:58.014Z,21.83
2016-11-15T14:51:08.938Z,21.85
2016-11-15T14:52:19.375Z,21.93
2016-11-15T14:53:29.814Z,21.9
2016-11-15T14:54:40.253Z,22.01
2016-11-15T14:55:50.689Z,22.01
2016-11-15T14:57:15.669Z,22.14
2016-11-15T14:58:26.592Z,22.15
2016-11-15T14:59:37.029Z,22.3
2016-11-15T15:00:47.469Z,22.49
2016-11-15T15:01:57.904Z,22.69
2016-11-15T15:03:08.347Z,22.85
2016-11-15T15:04:33.543Z,22.91
2016-11-15T15:05:43.990Z,23
2016-11-15T15:06:54.430Z,23.12
2016-11-15T15:08:04.880Z,23.26
2016-11-15T15:09:15.321Z,23.35
2016-11-15T15:10:40.306Z,23.41
2016-11-15T15:11:50.744Z,23.47
2016-11-15T15:13:01.131Z,23.49
2016-11-15T15:14:11.453Z,23.45
2016-11-15T15:15:21.873Z,23.45
2016-11-15T15:16:32.198Z,23.49
2016-11-15T15:17:42.516Z,23.49
2016-11-15T15:18:52.836Z,23.5
2016-11-15T15:20:03.830Z,23.67
2016-11-15T15:21:14.149Z,23.64
2016-11-15T15:22:24.469Z,23.74
2016-11-15T15:23:34.791Z,23.75
2016-11-15T15:24:45.111Z,23.75
2016-11-15T15:25:55.630Z,23.63
2016-11-15T15:27:05.952Z,23.69
2016-11-15T15:28:16.274Z,23.86
2016-11-15T15:29:26.599Z,23.89
2016-11-15T15:32:02.305Z,23.93
2016-11-15T15:33:12.627Z,24.02
2016-11-15T15:34:23.429Z,24
2016-11-15T15:35:33.752Z,23.93
2016-11-15T15:36:44.073Z,23.78
2016-11-15T15:37:54.396Z,23.52
2016-11-15T15:39:04.771Z,23.39
2016-11-15T15:40:29.731Z,23.25
2016-11-15T15:41:40.347Z,23.21
2016-11-15T15:43:05.316Z,23.09
2016-11-15T15:44:15.732Z,22.72
2016-11-15T15:45:26.141Z,22.76
2016-11-15T15:46:36.686Z,22.61
2016-11-15T15:47:47.357Z,22.54
2016-11-15T15:48:57.894Z,22.51
2016-11-15T15:50:08.439Z,22.46
2016-11-15T15:51:33.493Z,22.39
2016-11-15T15:52:44.022Z,22.46
2016-11-15T15:53:54.567Z,22.45